createdAt,value
2017-09-09T00:00:16.406Z,1001.753
2017-09-09T00:03:10.999Z,1001.705
2017-09-09T00:06:05.661Z,1001.692
2017-09-09T00:09:00.292Z,1001.719
2017-09-09T00:11:54.999Z,1001.696
2017-09-09T00:17:44.417Z,1001.572
2017-09-09T00:20:39.114Z,1001.575
2017-09-09T00:23:33.894Z,1001.528
2017-09-09T00:26:28.447Z,1001.539
2017-09-09T00:29:23.135Z,1001.529
2017-09-09T00:32:17.702Z,1001.473
2017-09-09T00:35:12.375Z,1001.422
2017-09-09T00:38:29.621Z,1001.406
2017-09-09T00:41:17.257Z,1001.338
2017-09-09T00:44:11.781Z,1001.371
2017-09-09T00:47:06.289Z,1001.319
2017-09-09T00:50:00.884Z,1001.283
2017-09-09T00:52:55.514Z,1001.260
2017-09-09T00:55:50.216Z,1001.255
2017-09-09T00:58:44.831Z,1001.291
2017-09-09T01:01:39.607Z,1001.311
2017-09-09T01:04:34.357Z,1001.249
2017-09-09T01:07:28.989Z,1001.238
2017-09-09T01:10:23.656Z,1001.238
2017-09-09T01:13:18.378Z,1001.235
2017-09-09T01:16:13.034Z,1001.230
2017-09-09T01:19:07.749Z,1001.206
2017-09-09T01:22:02.594Z,1001.157
2017-09-09T01:24:57.122Z,1001.111
2017-09-09T01:27:52.097Z,1001.093
2017-09-09T01:30:46.813Z,1001.043
2017-09-09T01:33:41.485Z,1000.974
2017-09-09T01:36:36.126Z,1000.947
2017-09-09T01:39:30.836Z,1000.881
2017-09-09T01:45:20.813Z,1000.899
2017-09-09T01:48:15.351Z,1000.903
2017-09-09T01:51:09.992Z,1000.860
2017-09-09T01:54:04.654Z,1000.835
2017-09-09T01:56:59.317Z,1000.875
2017-09-09T01:59:54.012Z,1000.740
2017-09-09T02:02:48.709Z,1000.753
2017-09-09T02:05:43.392Z,1000.612
2017-09-09T02:08:38.055Z,1000.606
2017-09-09T02:11:32.751Z,1000.566
2017-09-09T02:14:27.359Z,1000.495
2017-09-09T02:17:21.989Z,1000.599
2017-09-09T02:20:16.597Z,1000.503
2017-09-09T02:23:11.224Z,1000.579
2017-09-09T02:26:05.868Z,1000.474
2017-09-09T02:29:00.552Z,1000.486
2017-09-09T02:31:55.243Z,1000.411
2017-09-09T02:34:49.935Z,1000.399
2017-09-09T02:37:44.546Z,1000.315
2017-09-09T02:40:39.274Z,1000.329
2017-09-09T02:43:34.041Z,1000.231
2017-09-09T02:46:28.766Z,1000.172
2017-09-09T02:49:23.597Z,1000.182
2017-09-09T02:52:18.322Z,1000.102
2017-09-09T02:55:13.065Z,1000.048
2017-09-09T02:58:07.842Z,1000.132
2017-09-09T03:01:02.590Z,1000.037
2017-09-09T03:03:57.238Z,1000.044
2017-09-09T03:06:51.979Z,1000.018
2017-09-09T03:09:46.738Z,1000.014
2017-09-09T03:12:41.415Z,999.979
2017-09-09T03:15:36.248Z,999.967
2017-09-09T03:18:30.957Z,999.995
2017-09-09T03:21:25.718Z,999.958
2017-09-09T03:24:20.462Z,999.891
2017-09-09T03:27:15.255Z,999.868
2017-09-09T03:30:09.913Z,999.838
2017-09-09T03:33:04.630Z,999.809
2017-09-09T03:35:59.329Z,999.777
2017-09-09T03:38:54.063Z,999.760
2017-09-09T03:41:48.797Z,999.713
2017-09-09T03:44:43.526Z,999.682
2017-09-09T03:47:38.304Z,999.670
2017-09-09T03:50:32.963Z,999.648
2017-09-09T03:53:27.641Z,999.645
2017-09-09T03:56:22.328Z,999.601
2017-09-09T03:59:17.157Z,999.587
2017-09-09T04:02:11.832Z,999.528
2017-09-09T04:05:06.524Z,999.529
2017-09-09T04:08:01.283Z,999.482
2017-09-09T04:10:56.078Z,999.475
2017-09-09T04:13:50.808Z,999.463
2017-09-09T04:16:45.524Z,999.501
2017-09-09T04:22:34.956Z,999.514
2017-09-09T04:25:29.768Z,999.479
2017-09-09T04:28:24.503Z,999.477
2017-09-09T04:31:19.213Z,999.488
2017-09-09T04:34:13.937Z,999.510
2017-09-09T04:37:08.680Z,999.503
2017-09-09T04:40:03.465Z,999.500
2017-09-09T04:42:58.193Z,999.509
2017-09-09T04:45:52.898Z,999.386
2017-09-09T04:48:47.588Z,999.388
2017-09-09T04:51:42.410Z,999.367
2017-09-09T04:57:31.920Z,999.313
2017-09-09T05:00:26.596Z,999.312
2017-09-09T05:03:21.326Z,999.346
2017-09-09T05:06:16.109Z,999.324
2017-09-09T05:09:10.879Z,999.330
2017-09-09T05:12:05.652Z,999.328
2017-09-09T05:15:00.294Z,999.351
2017-09-09T05:17:54.991Z,999.298
2017-09-09T05:20:49.790Z,999.241
2017-09-09T05:23:44.591Z,999.236
2017-09-09T05:26:39.261Z,999.176
2017-09-09T05:29:34.022Z,999.245
2017-09-09T05:32:28.746Z,999.324
2017-09-09T05:35:23.442Z,999.409
2017-09-09T05:41:12.983Z,999.312
2017-09-09T05:44:08.228Z,999.293
2017-09-09T05:47:03.054Z,999.268
2017-09-09T05:49:57.745Z,999.308
2017-09-09T05:52:52.602Z,999.280
2017-09-09T05:55:47.360Z,999.229
2017-09-09T05:58:42.145Z,999.211
2017-09-09T06:01:36.814Z,999.269
2017-09-09T06:04:31.516Z,999.199
2017-09-09T06:07:26.234Z,999.135
2017-09-09T06:10:20.845Z,999.160
2017-09-09T06:13:15.626Z,999.163
2017-09-09T06:16:10.380Z,999.152
2017-09-09T06:19:05.143Z,999.132
2017-09-09T06:21:59.949Z,999.138
2017-09-09T06:24:54.792Z,999.125
2017-09-09T06:27:49.557Z,999.093
2017-09-09T06:30:44.313Z,999.107
2017-09-09T06:33:39.052Z,999.110
2017-09-09T06:36:33.908Z,999.119
2017-09-09T06:39:28.608Z,999.140
2017-09-09T06:42:23.396Z,999.110
2017-09-09T06:45:18.180Z,999.125
2017-09-09T06:48:13.046Z,999.060
2017-09-09T06:51:07.778Z,999.061
2017-09-09T06:54:02.794Z,999.095
2017-09-09T06:56:57.523Z,999.056
2017-09-09T06:59:52.372Z,999.012
2017-09-09T07:02:47.073Z,998.939
2017-09-09T07:05:41.835Z,998.912
2017-09-09T07:08:36.728Z,998.887
2017-09-09T07:11:31.525Z,998.832
2017-09-09T07:14:26.364Z,998.804
2017-09-09T07:17:21.072Z,998.823
2017-09-09T07:20:15.718Z,998.791
2017-09-09T07:23:10.522Z,998.799
2017-09-09T07:26:05.352Z,998.864
2017-09-09T07:29:00.142Z,998.991
2017-09-09T07:34:49.776Z,999.126
2017-09-09T07:37:44.603Z,999.214
2017-09-09T07:45:21.952Z,999.162
2017-09-09T07:48:05.747Z,999.157
2017-09-09T07:50:59.865Z,999.151
2017-09-09T07:53:54.433Z,999.101
2017-09-09T07:57:00.308Z,999.177
2017-09-09T08:05:29.145Z,999.120
2017-09-09T08:11:06.660Z,999.165
2017-09-09T08:14:12.396Z,999.109
2017-09-09T08:20:48.174Z,999.140
2017-09-09T08:35:23.936Z,999.136
2017-09-09T08:40:11.562Z,999.027
2017-09-09T08:42:55.656Z,999.016
2017-09-09T08:56:45.007Z,999.057
2017-09-09T08:59:28.304Z,999.110
2017-09-09T11:51:06.662Z,998.801
2017-09-09T11:57:58.601Z,998.968
2017-09-09T12:34:47.474Z,999.175
2017-09-09T12:59:32.994Z,999.180
2017-09-09T13:02:50.333Z,999.222
2017-09-09T13:05:36.490Z,999.203
2017-09-09T13:40:43.036Z,999.461
2017-09-09T13:43:37.827Z,999.402
2017-09-09T14:01:08.459Z,999.451
2017-09-09T14:03:51.953Z,999.446
2017-09-09T14:06:57.211Z,999.548
2017-09-09T14:20:53.637Z,999.541
2017-09-09T14:24:11.066Z,999.543
2017-09-09T14:28:50.287Z,999.499
2017-09-09T14:31:34.706Z,999.445
2017-09-09T14:39:17.788Z,999.510
2017-09-09T14:53:52.652Z,999.615
2017-09-09T14:57:10.100Z,999.652
2017-09-09T14:59:56.327Z,999.669
2017-09-09T15:02:50.685Z,999.668
2017-09-09T15:05:45.264Z,999.703
2017-09-09T15:14:19.062Z,999.737
2017-09-09T15:17:03.057Z,999.701
2017-09-09T15:22:01.412Z,999.620
2017-09-09T15:30:13.632Z,999.659
2017-09-09T15:32:57.382Z,999.703
2017-09-09T15:35:51.468Z,999.732
2017-09-09T15:38:46.098Z,999.769
2017-09-09T15:41:40.864Z,999.870
2017-09-09T15:45:20.909Z,999.886
2017-09-09T15:51:53.138Z,999.928
2017-09-09T15:54:37.248Z,999.916
2017-09-09T15:57:31.434Z,1000.033
2017-09-09T16:00:26.058Z,1000.128
2017-09-09T16:03:20.931Z,1000.083
2017-09-09T16:06:15.776Z,1000.134
2017-09-09T16:09:10.618Z,1000.110
2017-09-09T16:12:05.490Z,1000.121
2017-09-09T16:15:00.462Z,1000.133
2017-09-09T16:22:49.104Z,1000.156
2017-09-09T16:25:32.963Z,1000.103
2017-09-09T16:28:27.082Z,1000.104
2017-09-09T16:33:03.300Z,1000.165
2017-09-09T16:35:48.037Z,1000.165
2017-09-09T16:41:37.108Z,1000.127
2017-09-09T16:53:00.432Z,1000.153
2017-09-09T16:55:44.136Z,1000.111
2017-09-09T17:01:32.636Z,1000.209
2017-09-09T17:04:27.334Z,1000.158
2017-09-09T17:12:22.199Z,1000.190
2017-09-09T17:16:58.196Z,1000.142
2017-09-09T17:23:58.133Z,1000.272
2017-09-09T17:32:31.391Z,1000.320
2017-09-09T17:35:15.246Z,1000.362
2017-09-09T17:38:09.157Z,1000.399
2017-09-09T17:41:03.766Z,1000.472
2017-09-09T17:44:44.127Z,1000.385
2017-09-09T17:47:52.850Z,1000.395
2017-09-09T17:50:40.621Z,1000.488
2017-09-09T17:59:48.184Z,1000.535
2017-09-09T18:02:31.977Z,1000.583
2017-09-09T18:05:26.071Z,1000.614
2017-09-09T18:08:20.663Z,1000.713
2017-09-09T18:11:15.510Z,1000.732
2017-09-09T18:14:44.178Z,1000.715
2017-09-09T18:18:04.912Z,1000.681
2017-09-09T18:26:08.059Z,1000.664
2017-09-09T18:28:51.792Z,1000.724
2017-09-09T18:31:45.733Z,1000.822
2017-09-09T18:34:40.294Z,1000.858
2017-09-09T18:37:34.985Z,1000.883
2017-09-09T18:45:23.572Z,1000.910
2017-09-09T18:48:07.347Z,1000.902
2017-09-09T18:51:01.452Z,1000.876
2017-09-09T18:53:56.034Z,1000.855
2017-09-09T18:56:50.812Z,1000.847
2017-09-09T19:08:14.109Z,1000.980
2017-09-09T19:10:57.691Z,1000.942
2017-09-09T19:13:51.541Z,1001.008
2017-09-09T19:16:46.089Z,1000.988
2017-09-09T19:23:33.875Z,1001.030
2017-09-09T19:26:39.636Z,1001.045
2017-09-09T19:37:40.956Z,1001.205
2017-09-09T19:40:30.324Z,1001.169
2017-09-09T19:43:24.798Z,1001.287
2017-09-09T19:49:42.970Z,1001.308
2017-09-09T19:52:49.622Z,1001.299
2017-09-09T19:56:22.332Z,1001.308
2017-09-09T19:59:08.255Z,1001.434
2017-09-09T20:02:02.770Z,1001.503
2017-09-09T20:04:57.531Z,1001.472
2017-09-09T20:11:27.067Z,1001.566
2017-09-09T20:14:11.046Z,1001.518
2017-09-09T20:17:05.183Z,1001.524
2017-09-09T20:22:26.700Z,1001.579
2017-09-09T20:25:10.978Z,1001.508
2017-09-09T20:28:05.271Z,1001.516
2017-09-09T20:30:59.839Z,1001.538
2017-09-09T20:33:54.573Z,1001.593
2017-09-09T20:41:04.934Z,1001.683
2017-09-09T20:43:54.573Z,1001.625
2017-09-09T20:46:49.434Z,1001.594
2017-09-09T20:49:44.254Z,1001.703
2017-09-09T20:52:39.016Z,1001.748
2017-09-09T20:55:33.908Z,1001.775
2017-09-09T21:03:11.268Z,1001.828
2017-09-09T21:05:55.187Z,1001.804
2017-09-09T21:08:49.351Z,1001.817
2017-09-09T21:11:43.830Z,1001.936
2017-09-09T21:14:49.929Z,1002.032
2017-09-09T21:17:51.118Z,1002.095
2017-09-09T21:25:34.839Z,1002.019
2017-09-09T21:28:18.572Z,1002.032
2017-09-09T21:31:12.601Z,1002.053
2017-09-09T21:35:37.483Z,1002.087
2017-09-09T21:38:22.309Z,1002.062
2017-09-09T21:41:16.707Z,1002.060
2017-09-09T21:47:12.191Z,1002.185
2017-09-09T21:56:37.411Z,1002.207
2017-09-09T21:59:31.498Z,1002.153
2017-09-09T22:02:25.928Z,1002.121
2017-09-09T22:05:20.729Z,1002.107
2017-09-09T22:08:15.452Z,1001.995
2017-09-09T22:11:21.671Z,1001.958
2017-09-09T22:17:57.661Z,1001.978
2017-09-09T22:20:41.725Z,1001.992
2017-09-09T22:23:35.823Z,1002.004
2017-09-09T22:27:38.337Z,1002.021
2017-09-09T22:30:23.867Z,1002.079
2017-09-09T22:33:18.284Z,1002.091
2017-09-09T22:40:21.582Z,1002.234
2017-09-09T22:43:05.428Z,1002.257
2017-09-09T22:45:59.483Z,1002.235
2017-09-09T22:48:54.020Z,1002.287
2017-09-09T22:55:57.294Z,1002.275
2017-09-09T22:58:41.201Z,1002.179
2017-09-09T23:01:35.260Z,1002.080
2017-09-09T23:04:29.756Z,1002.042
2017-09-09T23:07:24.437Z,1002.001
2017-09-09T23:10:19.317Z,1002.037
2017-09-09T23:20:12.242Z,1002.000
2017-09-09T23:22:55.850Z,1002.106
2017-09-09T23:25:49.887Z,1002.086
2017-09-09T23:28:44.502Z,1002.138
2017-09-09T23:31:39.139Z,1002.235
2017-09-09T23:41:09.386Z,1002.352
2017-09-09T23:43:53.031Z,1002.349
2017-09-09T23:46:46.937Z,1002.329
2017-09-09T23:49:41.626Z,1002.242
2017-09-09T23:52:36.224Z,1002.245
